sensor_id;sensor_type;location;lat;lon;timestamp;pressure;altitude;pressure_sealevel;temperature;humidity
70488;BME280;57976;48.174;16.370;2023-05-24T00:01:55;99134.79;;;17.67;85.93
70488;BME280;57976;48.174;16.370;2023-05-24T00:04:00;99133.51;;;17.68;85.28
70488;BME280;57976;48.174;16.370;2023-05-24T00:06:05;99130.05;;;17.68;85.66
70488;BME280;57976;48.174;16.370;2023-05-24T00:08:10;99127.89;;;17.67;85.70
70488;BME280;57976;48.174;16.370;2023-05-24T00:10:15;99128.34;;;17.64;85.56
70488;BME280;57976;48.174;16.370;2023-05-24T00:12:20;99130.99;;;17.62;85.51
70488;BME280;57976;48.174;16.370;2023-05-24T00:14:25;99125.60;;;17.61;85.49
70488;BME280;57976;48.174;16.370;2023-05-24T00:16:30;99126.67;;;17.57;85.61
70488;BME280;57976;48.174;16.370;2023-05-24T00:18:34;99126.02;;;17.55;85.18
70488;BME280;57976;48.174;16.370;2023-05-24T00:20:39;99123.84;;;17.53;84.99
70488;BME280;57976;48.174;16.370;2023-05-24T00:22:44;99117.55;;;17.51;85.18
70488;BME280;57976;48.174;16.370;2023-05-24T00:24:49;99119.34;;;17.51;85.24
70488;BME280;57976;48.174;16.370;2023-05-24T00:26:54;99121.70;;;17.51;85.43
70488;BME280;57976;48.174;16.370;2023-05-24T00:28:58;99121.57;;;17.47;85.20
70488;BME280;57976;48.174;16.370;2023-05-24T00:31:03;99127.84;;;17.44;84.99
70488;BME280;57976;48.174;16.370;2023-05-24T00:33:08;99133.95;;;17.42;85.22
70488;BME280;57976;48.174;16.370;2023-05-24T00:35:12;99131.41;;;17.41;84.98
70488;BME280;57976;48.174;16.370;2023-05-24T00:37:17;99135.11;;;17.39;84.58
70488;BME280;57976;48.174;16.370;2023-05-24T00:39:22;99137.04;;;17.39;84.48
70488;BME280;57976;48.174;16.370;2023-05-24T00:41:27;99133.01;;;17.36;84.30
70488;BME280;57976;48.174;16.370;2023-05-24T00:43:32;99138.17;;;17.36;84.25
70488;BME280;57976;48.174;16.370;2023-05-24T00:45:36;99142.40;;;17.34;84.01
70488;BME280;57976;48.174;16.370;2023-05-24T00:47:41;99140.02;;;17.33;84.40
70488;BME280;57976;48.174;16.370;2023-05-24T00:49:47;99136.84;;;17.33;84.62
70488;BME280;57976;48.174;16.370;2023-05-24T00:51:52;99143.42;;;17.33;84.45
70488;BME280;57976;48.174;16.370;2023-05-24T00:53:58;99142.25;;;17.31;84.18
70488;BME280;57976;48.174;16.370;2023-05-24T00:56:04;99140.61;;;17.29;84.20
70488;BME280;57976;48.174;16.370;2023-05-24T00:58:09;99140.38;;;17.27;84.38
70488;BME280;57976;48.174;16.370;2023-05-24T01:00:14;99139.48;;;17.24;84.42
70488;BME280;57976;48.174;16.370;2023-05-24T01:02:19;99142.30;;;17.23;84.39
70488;BME280;57976;48.174;16.370;2023-05-24T01:04:24;99138.77;;;17.19;84.39
70488;BME280;57976;48.174;16.370;2023-05-24T01:06:29;99138.62;;;17.17;84.55
70488;BME280;57976;48.174;16.370;2023-05-24T01:09:00;99140.86;;;17.13;84.53
70488;BME280;57976;48.174;16.370;2023-05-24T01:11:12;99142.85;;;17.08;84.52
70488;BME280;57976;48.174;16.370;2023-05-24T01:13:26;99137.88;;;17.03;84.17
70488;BME280;57976;48.174;16.370;2023-05-24T01:15:40;99145.10;;;16.97;84.35
70488;BME280;57976;48.174;16.370;2023-05-24T01:17:50;99137.14;;;16.92;84.21
70488;BME280;57976;48.174;16.370;2023-05-24T01:20:01;99141.70;;;16.89;84.58
70488;BME280;57976;48.174;16.370;2023-05-24T01:22:16;99144.83;;;16.85;84.75
70488;BME280;57976;48.174;16.370;2023-05-24T01:24:29;99149.02;;;16.81;84.89
70488;BME280;57976;48.174;16.370;2023-05-24T01:26:41;99144.78;;;16.76;85.18
70488;BME280;57976;48.174;16.370;2023-05-24T01:28:50;99146.25;;;16.74;85.44
70488;BME280;57976;48.174;16.370;2023-05-24T01:30:57;99147.56;;;16.72;85.36
70488;BME280;57976;48.174;16.370;2023-05-24T01:33:02;99147.17;;;16.67;85.52
70488;BME280;57976;48.174;16.370;2023-05-24T01:35:09;99157.13;;;16.65;85.69
70488;BME280;57976;48.174;16.370;2023-05-24T01:37:14;99147.91;;;16.61;85.95
70488;BME280;57976;48.174;16.370;2023-05-24T01:39:19;99149.73;;;16.57;86.27
70488;BME280;57976;48.174;16.370;2023-05-24T01:41:32;99155.71;;;16.54;86.45
70488;BME280;57976;48.174;16.370;2023-05-24T01:43:42;99150.36;;;16.52;86.68
70488;BME280;57976;48.174;16.370;2023-05-24T01:46:00;99152.31;;;16.51;86.85
70488;BME280;57976;48.174;16.370;2023-05-24T01:48:11;99155.29;;;16.49;87.12
70488;BME280;57976;48.174;16.370;2023-05-24T01:50:24;99151.36;;;16.47;87.30
70488;BME280;57976;48.174;16.370;2023-05-24T01:52:32;99150.60;;;16.44;87.44
70488;BME280;57976;48.174;16.370;2023-05-24T01:54:41;99153.85;;;16.41;87.61
70488;BME280;57976;48.174;16.370;2023-05-24T01:56:48;99151.59;;;16.39;87.30
70488;BME280;57976;48.174;16.370;2023-05-24T01:58:57;99152.55;;;16.37;87.22
70488;BME280;57976;48.174;16.370;2023-05-24T02:01:02;99143.05;;;16.36;87.07
70488;BME280;57976;48.174;16.370;2023-05-24T02:03:08;99145.24;;;16.35;86.81
70488;BME280;57976;48.174;16.370;2023-05-24T02:05:13;99149.31;;;16.34;86.87
70488;BME280;57976;48.174;16.370;2023-05-24T02:07:17;99153.19;;;16.32;86.64
70488;BME280;57976;48.174;16.370;2023-05-24T02:09:22;99158.23;;;16.31;86.43
70488;BME280;57976;48.174;16.370;2023-05-24T02:11:27;99158.59;;;16.30;86.33
70488;BME280;57976;48.174;16.370;2023-05-24T02:13:32;99154.99;;;16.28;86.12
70488;BME280;57976;48.174;16.370;2023-05-24T02:15:37;99150.27;;;16.27;86.35
70488;BME280;57976;48.174;16.370;2023-05-24T02:17:41;99154.67;;;16.25;86.33
70488;BME280;57976;48.174;16.370;2023-05-24T02:19:46;99156.79;;;16.23;86.26
70488;BME280;57976;48.174;16.370;2023-05-24T02:21:51;99168.55;;;16.22;86.06
70488;BME280;57976;48.174;16.370;2023-05-24T02:23:56;99165.66;;;16.20;86.08
70488;BME280;57976;48.174;16.370;2023-05-24T02:26:00;99160.27;;;16.19;86.10
70488;BME280;57976;48.174;16.370;2023-05-24T02:28:07;99162.13;;;16.17;86.28
70488;BME280;57976;48.174;16.370;2023-05-24T02:30:13;99159.66;;;16.15;86.28
70488;BME280;57976;48.174;16.370;2023-05-24T02:32:17;99159.02;;;16.15;86.32
70488;BME280;57976;48.174;16.370;2023-05-24T02:34:25;99158.95;;;16.13;86.47
70488;BME280;57976;48.174;16.370;2023-05-24T02:36:29;99157.13;;;16.12;86.63
70488;BME280;57976;48.174;16.370;2023-05-24T02:38:34;99152.46;;;16.10;86.66
70488;BME280;57976;48.174;16.370;2023-05-24T02:40:39;99160.11;;;16.08;86.82
70488;BME280;57976;48.174;16.370;2023-05-24T02:42:44;99160.96;;;16.07;86.90
70488;BME280;57976;48.174;16.370;2023-05-24T02:44:49;99167.20;;;16.05;86.90
70488;BME280;57976;48.174;16.370;2023-05-24T02:46:53;99171.38;;;16.03;87.16
70488;BME280;57976;48.174;16.370;2023-05-24T02:48:58;99176.45;;;16.02;87.32
70488;BME280;57976;48.174;16.370;2023-05-24T02:51:03;99175.64;;;15.99;87.42
70488;BME280;57976;48.174;16.370;2023-05-24T02:53:08;99175.44;;;15.97;87.37
70488;BME280;57976;48.174;16.370;2023-05-24T02:55:12;99176.39;;;15.97;87.42
70488;BME280;57976;48.174;16.370;2023-05-24T02:57:18;99173.66;;;15.97;87.25
70488;BME280;57976;48.174;16.370;2023-05-24T02:59:23;99182.35;;;15.96;87.68
70488;BME280;57976;48.174;16.370;2023-05-24T03:01:29;99182.48;;;15.95;87.52
70488;BME280;57976;48.174;16.370;2023-05-24T03:03:34;99179.31;;;15.92;87.45
70488;BME280;57976;48.174;16.370;2023-05-24T03:05:40;99178.71;;;15.89;87.78
70488;BME280;57976;48.174;16.370;2023-05-24T03:07:45;99174.13;;;15.85;88.06
70488;BME280;57976;48.174;16.370;2023-05-24T03:09:51;99176.46;;;15.84;88.01
70488;BME280;57976;48.174;16.370;2023-05-24T03:11:57;99174.21;;;15.81;88.13
70488;BME280;57976;48.174;16.370;2023-05-24T03:14:01;99171.98;;;15.78;88.13
70488;BME280;57976;48.174;16.370;2023-05-24T03:16:07;99176.67;;;15.78;87.81
70488;BME280;57976;48.174;16.370;2023-05-24T03:18:12;99179.27;;;15.77;87.95
70488;BME280;57976;48.174;16.370;2023-05-24T03:20:17;99177.86;;;15.76;87.69
70488;BME280;57976;48.174;16.370;2023-05-24T03:22:22;99186.05;;;15.78;87.74
70488;BME280;57976;48.174;16.370;2023-05-24T03:24:26;99191.36;;;15.77;87.80
70488;BME280;57976;48.174;16.370;2023-05-24T03:26:31;99191.80;;;15.75;87.66
70488;BME280;57976;48.174;16.370;2023-05-24T03:28:36;99194.45;;;15.73;87.73
70488;BME280;57976;48.174;16.370;2023-05-24T03:30:41;99197.34;;;15.73;88.16
70488;BME280;57976;48.174;16.370;2023-05-24T03:32:46;99196.18;;;15.73;88.11
70488;BME280;57976;48.174;16.370;2023-05-24T03:34:51;99196.65;;;15.73;88.03
70488;BME280;57976;48.174;16.370;2023-05-24T03:36:56;99199.06;;;15.73;88.24
70488;BME280;57976;48.174;16.370;2023-05-24T03:39:00;99197.30;;;15.73;88.06
70488;BME280;57976;48.174;16.370;2023-05-24T03:41:06;99196.56;;;15.71;88.02
70488;BME280;57976;48.174;16.370;2023-05-24T03:43:10;99193.76;;;15.71;87.95
70488;BME280;57976;48.174;16.370;2023-05-24T03:45:19;99192.54;;;15.72;87.80
70488;BME280;57976;48.174;16.370;2023-05-24T03:47:41;99197.79;;;15.74;87.65
70488;BME280;57976;48.174;16.370;2023-05-24T03:49:46;99198.85;;;15.75;87.45
70488;BME280;57976;48.174;16.370;2023-05-24T03:51:51;99201.17;;;15.76;87.12
70488;BME280;57976;48.174;16.370;2023-05-24T03:53:56;99199.69;;;15.76;86.84
70488;BME280;57976;48.174;16.370;2023-05-24T03:56:02;99204.92;;;15.80;86.69
70488;BME280;57976;48.174;16.370;2023-05-24T03:58:07;99208.80;;;15.83;86.28
70488;BME280;57976;48.174;16.370;2023-05-24T04:00:13;99211.91;;;15.86;86.16
70488;BME280;57976;48.174;16.370;2023-05-24T04:02:22;99210.99;;;15.88;85.95
70488;BME280;57976;48.174;16.370;2023-05-24T04:04:29;99216.45;;;15.92;86.11
70488;BME280;57976;48.174;16.370;2023-05-24T04:06:34;99214.08;;;15.97;85.76
70488;BME280;57976;48.174;16.370;2023-05-24T04:08:39;99211.97;;;16.02;85.77
70488;BME280;57976;48.174;16.370;2023-05-24T04:10:43;99211.65;;;16.04;85.54
70488;BME280;57976;48.174;16.370;2023-05-24T04:12:48;99212.52;;;16.08;85.59
70488;BME280;57976;48.174;16.370;2023-05-24T04:14:53;99215.04;;;16.10;85.18
70488;BME280;57976;48.174;16.370;2023-05-24T04:16:58;99218.75;;;16.13;84.97
70488;BME280;57976;48.174;16.370;2023-05-24T04:19:03;99213.10;;;16.15;84.83
70488;BME280;57976;48.174;16.370;2023-05-24T04:21:08;99215.13;;;16.17;84.88
70488;BME280;57976;48.174;16.370;2023-05-24T04:23:14;99224.92;;;16.20;84.66
70488;BME280;57976;48.174;16.370;2023-05-24T04:25:20;99223.02;;;16.22;84.49
70488;BME280;57976;48.174;16.370;2023-05-24T04:27:25;99224.23;;;16.26;84.56
70488;BME280;57976;48.174;16.370;2023-05-24T04:29:30;99226.35;;;16.31;84.46
70488;BME280;57976;48.174;16.370;2023-05-24T04:31:36;99227.88;;;16.35;84.22
70488;BME280;57976;48.174;16.370;2023-05-24T04:33:41;99230.91;;;16.36;83.98
70488;BME280;57976;48.174;16.370;2023-05-24T04:35:46;99236.00;;;16.38;84.08
70488;BME280;57976;48.174;16.370;2023-05-24T04:37:50;99233.98;;;16.39;84.15
70488;BME280;57976;48.174;16.370;2023-05-24T04:39:56;99230.18;;;16.43;84.07
70488;BME280;57976;48.174;16.370;2023-05-24T04:42:01;99230.43;;;16.48;83.85
70488;BME280;57976;48.174;16.370;2023-05-24T04:44:05;99236.46;;;16.53;83.36
70488;BME280;57976;48.174;16.370;2023-05-24T04:46:11;99238.19;;;16.55;83.17
70488;BME280;57976;48.174;16.370;2023-05-24T04:48:16;99242.65;;;16.58;83.15
70488;BME280;57976;48.174;16.370;2023-05-24T04:50:21;99245.99;;;16.58;83.05
70488;BME280;57976;48.174;16.370;2023-05-24T04:52:25;99243.70;;;16.59;83.15
70488;BME280;57976;48.174;16.370;2023-05-24T04:54:32;99250.58;;;16.61;82.92
70488;BME280;57976;48.174;16.370;2023-05-24T04:56:37;99255.79;;;16.61;82.34
70488;BME280;57976;48.174;16.370;2023-05-24T04:58:42;99257.36;;;16.62;81.73
70488;BME280;57976;48.174;16.370;2023-05-24T05:00:47;99250.01;;;16.62;81.53
70488;BME280;57976;48.174;16.370;2023-05-24T05:02:51;99254.80;;;16.66;81.55
70488;BME280;57976;48.174;16.370;2023-05-24T05:04:56;99250.80;;;16.71;81.28
70488;BME280;57976;48.174;16.370;2023-05-24T05:07:01;99250.05;;;16.74;81.31
70488;BME280;57976;48.174;16.370;2023-05-24T05:09:06;99250.02;;;16.81;80.69
70488;BME280;57976;48.174;16.370;2023-05-24T05:11:11;99253.82;;;16.83;80.52
70488;BME280;57976;48.174;16.370;2023-05-24T05:13:16;99259.13;;;16.82;80.04
70488;BME280;57976;48.174;16.370;2023-05-24T05:15:23;99257.30;;;16.79;80.37
70488;BME280;57976;48.174;16.370;2023-05-24T05:17:28;99256.64;;;16.78;80.38
70488;BME280;57976;48.174;16.370;2023-05-24T05:19:32;99259.42;;;16.77;80.42
70488;BME280;57976;48.174;16.370;2023-05-24T05:21:37;99260.07;;;16.78;80.29
70488;BME280;57976;48.174;16.370;2023-05-24T05:23:42;99264.36;;;16.77;80.05
70488;BME280;57976;48.174;16.370;2023-05-24T05:25:47;99263.34;;;16.76;79.94
70488;BME280;57976;48.174;16.370;2023-05-24T05:27:51;99264.51;;;16.76;79.68
70488;BME280;57976;48.174;16.370;2023-05-24T05:29:56;99266.27;;;16.76;79.61
70488;BME280;57976;48.174;16.370;2023-05-24T05:32:01;99269.08;;;16.76;79.44
70488;BME280;57976;48.174;16.370;2023-05-24T05:34:06;99263.00;;;16.76;79.57
70488;BME280;57976;48.174;16.370;2023-05-24T05:36:10;99265.54;;;16.79;79.46
70488;BME280;57976;48.174;16.370;2023-05-24T05:38:15;99269.16;;;16.86;79.52
70488;BME280;57976;48.174;16.370;2023-05-24T05:40:20;99262.48;;;16.93;78.93
70488;BME280;57976;48.174;16.370;2023-05-24T05:42:25;99276.79;;;16.98;78.35
70488;BME280;57976;48.174;16.370;2023-05-24T05:44:29;99274.05;;;16.99;77.99
70488;BME280;57976;48.174;16.370;2023-05-24T05:46:34;99274.63;;;16.98;78.01
70488;BME280;57976;48.174;16.370;2023-05-24T05:48:39;99272.52;;;16.94;78.30
70488;BME280;57976;48.174;16.370;2023-05-24T05:50:44;99285.30;;;16.92;78.04
70488;BME280;57976;48.174;16.370;2023-05-24T05:52:48;99284.09;;;16.88;78.07
70488;BME280;57976;48.174;16.370;2023-05-24T05:54:53;99285.55;;;16.83;78.31
70488;BME280;57976;48.174;16.370;2023-05-24T05:56:58;99275.13;;;16.83;78.44
70488;BME280;57976;48.174;16.370;2023-05-24T05:59:05;99280.02;;;16.89;78.53
70488;BME280;57976;48.174;16.370;2023-05-24T06:01:10;99282.27;;;16.95;78.41
70488;BME280;57976;48.174;16.370;2023-05-24T06:03:15;99279.45;;;17.03;78.36
70488;BME280;57976;48.174;16.370;2023-05-24T06:05:20;99294.29;;;17.11;77.76
70488;BME280;57976;48.174;16.370;2023-05-24T06:07:25;99292.05;;;17.16;77.20
70488;BME280;57976;48.174;16.370;2023-05-24T06:09:30;99287.73;;;17.18;77.13
70488;BME280;57976;48.174;16.370;2023-05-24T06:11:35;99294.20;;;17.22;76.49
70488;BME280;57976;48.174;16.370;2023-05-24T06:13:39;99295.16;;;17.25;76.45
70488;BME280;57976;48.174;16.370;2023-05-24T06:15:44;99295.93;;;17.32;75.86
70488;BME280;57976;48.174;16.370;2023-05-24T06:17:49;99301.70;;;17.36;75.18
70488;BME280;57976;48.174;16.370;2023-05-24T06:19:54;99306.41;;;17.34;74.79
70488;BME280;57976;48.174;16.370;2023-05-24T06:21:59;99310.78;;;17.31;75.17
70488;BME280;57976;48.174;16.370;2023-05-24T06:24:04;99308.84;;;17.24;75.12
70488;BME280;57976;48.174;16.370;2023-05-24T06:26:09;99305.91;;;17.17;75.12
70488;BME280;57976;48.174;16.370;2023-05-24T06:28:14;99300.64;;;17.12;76.01
70488;BME280;57976;48.174;16.370;2023-05-24T06:30:19;99302.13;;;17.16;75.96
70488;BME280;57976;48.174;16.370;2023-05-24T06:32:23;99303.77;;;17.21;75.77
70488;BME280;57976;48.174;16.370;2023-05-24T06:34:28;99309.37;;;17.28;75.29
70488;BME280;57976;48.174;16.370;2023-05-24T06:36:33;99309.32;;;17.31;74.78
70488;BME280;57976;48.174;16.370;2023-05-24T06:38:38;99306.70;;;17.32;74.71
70488;BME280;57976;48.174;16.370;2023-05-24T06:40:42;99306.20;;;17.35;74.73
70488;BME280;57976;48.174;16.370;2023-05-24T06:42:48;99310.00;;;17.39;74.28
70488;BME280;57976;48.174;16.370;2023-05-24T06:44:52;99309.42;;;17.45;74.09
70488;BME280;57976;48.174;16.370;2023-05-24T06:46:58;99314.11;;;17.53;73.97
70488;BME280;57976;48.174;16.370;2023-05-24T06:49:03;99313.19;;;17.62;73.37
70488;BME280;57976;48.174;16.370;2023-05-24T06:51:08;99316.15;;;17.69;72.18
70488;BME280;57976;48.174;16.370;2023-05-24T06:53:13;99312.33;;;17.73;72.39
70488;BME280;57976;48.174;16.370;2023-05-24T06:55:18;99321.36;;;17.80;71.66
70488;BME280;57976;48.174;16.370;2023-05-24T06:57:23;99324.81;;;17.83;71.25
70488;BME280;57976;48.174;16.370;2023-05-24T06:59:28;99317.80;;;17.82;71.16
70488;BME280;57976;48.174;16.370;2023-05-24T07:01:33;99326.71;;;17.83;71.54
70488;BME280;57976;48.174;16.370;2023-05-24T07:03:37;99327.02;;;17.83;71.61
70488;BME280;57976;48.174;16.370;2023-05-24T07:05:42;99326.27;;;17.83;72.03
70488;BME280;57976;48.174;16.370;2023-05-24T07:07:47;99328.23;;;17.88;72.28
70488;BME280;57976;48.174;16.370;2023-05-24T07:09:52;99331.84;;;17.98;71.88
70488;BME280;57976;48.174;16.370;2023-05-24T07:11:57;99330.05;;;18.05;71.05
70488;BME280;57976;48.174;16.370;2023-05-24T07:14:02;99328.27;;;18.10;70.92
70488;BME280;57976;48.174;16.370;2023-05-24T07:16:07;99332.64;;;18.10;70.04
70488;BME280;57976;48.174;16.370;2023-05-24T07:18:12;99334.88;;;18.12;70.22
70488;BME280;57976;48.174;16.370;2023-05-24T07:20:17;99339.96;;;18.13;69.25
70488;BME280;57976;48.174;16.370;2023-05-24T07:22:22;99334.65;;;18.07;69.32
70488;BME280;57976;48.174;16.370;2023-05-24T07:24:27;99333.82;;;18.02;69.32
70488;BME280;57976;48.174;16.370;2023-05-24T07:26:31;99329.79;;;18.03;69.86
70488;BME280;57976;48.174;16.370;2023-05-24T07:28:36;99330.82;;;18.12;69.41
70488;BME280;57976;48.174;16.370;2023-05-24T07:30:41;99326.33;;;18.21;68.30
70488;BME280;57976;48.174;16.370;2023-05-24T07:32:46;99331.33;;;18.28;65.86
70488;BME280;57976;48.174;16.370;2023-05-24T07:34:51;99340.56;;;18.30;65.73
70488;BME280;57976;48.174;16.370;2023-05-24T07:36:56;99337.27;;;18.29;65.55
70488;BME280;57976;48.174;16.370;2023-05-24T07:39:01;99338.81;;;18.27;65.49
70488;BME280;57976;48.174;16.370;2023-05-24T07:41:07;99342.30;;;18.27;65.88
70488;BME280;57976;48.174;16.370;2023-05-24T07:43:13;99337.94;;;18.27;65.52
70488;BME280;57976;48.174;16.370;2023-05-24T07:45:21;99339.48;;;18.27;65.27
70488;BME280;57976;48.174;16.370;2023-05-24T07:47:26;99343.52;;;18.29;65.21
70488;BME280;57976;48.174;16.370;2023-05-24T07:49:31;99346.70;;;18.32;65.18
70488;BME280;57976;48.174;16.370;2023-05-24T07:51:36;99346.89;;;18.38;65.03
70488;BME280;57976;48.174;16.370;2023-05-24T07:53:41;99343.13;;;18.44;65.12
70488;BME280;57976;48.174;16.370;2023-05-24T07:55:46;99345.91;;;18.54;64.45
70488;BME280;57976;48.174;16.370;2023-05-24T07:57:51;99353.03;;;18.58;63.67
70488;BME280;57976;48.174;16.370;2023-05-24T07:59:56;99349.98;;;18.59;63.40
70488;BME280;57976;48.174;16.370;2023-05-24T08:02:01;99345.12;;;18.65;63.17
70488;BME280;57976;48.174;16.370;2023-05-24T08:04:05;99344.02;;;18.72;63.27
70488;BME280;57976;48.174;16.370;2023-05-24T08:06:10;99354.12;;;18.82;61.94
70488;BME280;57976;48.174;16.370;2023-05-24T08:08:15;99344.71;;;18.85;61.14
70488;BME280;57976;48.174;16.370;2023-05-24T08:10:23;99349.58;;;18.92;61.39
70488;BME280;57976;48.174;16.370;2023-05-24T08:12:27;99349.01;;;18.98;61.39
70488;BME280;57976;48.174;16.370;2023-05-24T08:14:32;99350.45;;;19.03;61.58
70488;BME280;57976;48.174;16.370;2023-05-24T08:16:37;99347.92;;;19.08;61.12
70488;BME280;57976;48.174;16.370;2023-05-24T08:18:42;99345.69;;;19.12;60.04
70488;BME280;57976;48.174;16.370;2023-05-24T08:20:47;99351.66;;;19.16;58.59
70488;BME280;57976;48.174;16.370;2023-05-24T08:22:55;99342.85;;;19.15;58.63
70488;BME280;57976;48.174;16.370;2023-05-24T08:25:00;99345.18;;;19.16;58.11
70488;BME280;57976;48.174;16.370;2023-05-24T08:27:05;99341.85;;;19.12;58.36
70488;BME280;57976;48.174;16.370;2023-05-24T08:29:12;99346.91;;;19.11;58.90
70488;BME280;57976;48.174;16.370;2023-05-24T08:31:17;99354.66;;;19.11;59.05
70488;BME280;57976;48.174;16.370;2023-05-24T08:33:22;99350.26;;;19.09;59.05
70488;BME280;57976;48.174;16.370;2023-05-24T08:35:27;99351.34;;;19.05;59.36
70488;BME280;57976;48.174;16.370;2023-05-24T08:37:32;99353.16;;;18.98;59.35
70488;BME280;57976;48.174;16.370;2023-05-24T08:39:37;99355.20;;;18.98;59.47
70488;BME280;57976;48.174;16.370;2023-05-24T08:41:42;99355.32;;;18.97;59.32
70488;BME280;57976;48.174;16.370;2023-05-24T08:44:01;99352.89;;;18.98;59.64
70488;BME280;57976;48.174;16.370;2023-05-24T08:46:07;99350.91;;;18.99;59.69
70488;BME280;57976;48.174;16.370;2023-05-24T08:48:12;99345.92;;;18.98;60.11
70488;BME280;57976;48.174;16.370;2023-05-24T08:50:18;99347.48;;;19.01;59.61
70488;BME280;57976;48.174;16.370;2023-05-24T08:52:24;99351.98;;;19.04;59.53
70488;BME280;57976;48.174;16.370;2023-05-24T08:54:30;99347.48;;;19.08;58.95
70488;BME280;57976;48.174;16.370;2023-05-24T08:56:35;99350.33;;;19.11;58.27
70488;BME280;57976;48.174;16.370;2023-05-24T08:58:41;99350.64;;;19.15;58.31
70488;BME280;57976;48.174;16.370;2023-05-24T09:00:46;99345.04;;;19.19;58.61
70488;BME280;57976;48.174;16.370;2023-05-24T09:02:51;99344.29;;;19.24;58.53
70488;BME280;57976;48.174;16.370;2023-05-24T09:04:57;99343.28;;;19.32;58.72
70488;BME280;57976;48.174;16.370;2023-05-24T09:07:04;99347.65;;;19.35;57.99
70488;BME280;57976;48.174;16.370;2023-05-24T09:09:09;99356.61;;;19.45;57.44
70488;BME280;57976;48.174;16.370;2023-05-24T09:11:15;99358.46;;;19.53;56.71
70488;BME280;57976;48.174;16.370;2023-05-24T09:13:21;99355.92;;;19.53;56.65
70488;BME280;57976;48.174;16.370;2023-05-24T09:15:27;99356.95;;;19.53;56.56
70488;BME280;57976;48.174;16.370;2023-05-24T09:17:32;99348.41;;;19.53;56.77
70488;BME280;57976;48.174;16.370;2023-05-24T09:19:37;99354.40;;;19.60;57.06
70488;BME280;57976;48.174;16.370;2023-05-24T09:21:43;99356.24;;;19.67;57.10
70488;BME280;57976;48.174;16.370;2023-05-24T09:23:50;99353.23;;;19.71;57.43
70488;BME280;57976;48.174;16.370;2023-05-24T09:25:55;99359.86;;;19.78;57.02
70488;BME280;57976;48.174;16.370;2023-05-24T09:28:05;99361.26;;;19.85;55.97
70488;BME280;57976;48.174;16.370;2023-05-24T09:30:11;99359.21;;;19.89;55.73
70488;BME280;57976;48.174;16.370;2023-05-24T09:32:17;99355.18;;;19.91;56.03
70488;BME280;57976;48.174;16.370;2023-05-24T09:34:22;99357.58;;;19.94;56.37
70488;BME280;57976;48.174;16.370;2023-05-24T09:36:27;99354.66;;;19.95;55.89
70488;BME280;57976;48.174;16.370;2023-05-24T09:38:33;99361.67;;;19.94;55.87
70488;BME280;57976;48.174;16.370;2023-05-24T09:40:38;99351.25;;;19.88;56.10
70488;BME280;57976;48.174;16.370;2023-05-24T09:42:44;99356.70;;;19.84;56.19
70488;BME280;57976;48.174;16.370;2023-05-24T09:44:49;99356.98;;;19.79;56.23
70488;BME280;57976;48.174;16.370;2023-05-24T09:47:03;99357.17;;;19.82;56.53
70488;BME280;57976;48.174;16.370;2023-05-24T09:49:08;99356.35;;;19.90;56.48
70488;BME280;57976;48.174;16.370;2023-05-24T09:51:14;99351.16;;;19.90;56.56
70488;BME280;57976;48.174;16.370;2023-05-24T09:53:19;99352.31;;;19.83;56.86
70488;BME280;57976;48.174;16.370;2023-05-24T09:55:27;99358.61;;;19.86;57.14
70488;BME280;57976;48.174;16.370;2023-05-24T09:57:34;99363.00;;;19.97;57.38
70488;BME280;57976;48.174;16.370;2023-05-24T09:59:40;99363.58;;;20.11;56.58
70488;BME280;57976;48.174;16.370;2023-05-24T10:01:45;99360.69;;;20.22;56.04
70488;BME280;57976;48.174;16.370;2023-05-24T10:03:57;99363.71;;;20.28;56.01
70488;BME280;57976;48.174;16.370;2023-05-24T10:06:02;99365.67;;;20.34;55.94
70488;BME280;57976;48.174;16.370;2023-05-24T10:08:07;99356.52;;;20.42;56.06
70488;BME280;57976;48.174;16.370;2023-05-24T10:10:13;99361.13;;;20.52;55.59
70488;BME280;57976;48.174;16.370;2023-05-24T10:12:19;99366.96;;;20.51;55.59
70488;BME280;57976;48.174;16.370;2023-05-24T10:14:25;99363.79;;;20.45;55.25
70488;BME280;57976;48.174;16.370;2023-05-24T10:16:31;99362.52;;;20.37;55.38
70488;BME280;57976;48.174;16.370;2023-05-24T10:18:37;99366.82;;;20.43;55.23
70488;BME280;57976;48.174;16.370;2023-05-24T10:20:42;99365.34;;;20.53;54.85
70488;BME280;57976;48.174;16.370;2023-05-24T10:22:50;99364.23;;;20.57;54.68
70488;BME280;57976;48.174;16.370;2023-05-24T10:24:57;99359.73;;;20.55;55.00
70488;BME280;57976;48.174;16.370;2023-05-24T10:27:06;99350.52;;;20.52;55.37
70488;BME280;57976;48.174;16.370;2023-05-24T10:29:23;99356.54;;;20.58;55.40
70488;BME280;57976;48.174;16.370;2023-05-24T10:31:33;99353.02;;;20.59;54.14
70488;BME280;57976;48.174;16.370;2023-05-24T10:33:43;99351.17;;;20.54;54.50
70488;BME280;57976;48.174;16.370;2023-05-24T10:35:48;99358.73;;;20.53;54.85
70488;BME280;57976;48.174;16.370;2023-05-24T10:37:54;99352.85;;;20.57;55.29
70488;BME280;57976;48.174;16.370;2023-05-24T10:40:00;99357.55;;;20.65;54.90
70488;BME280;57976;48.174;16.370;2023-05-24T10:42:05;99351.69;;;20.65;55.00
70488;BME280;57976;48.174;16.370;2023-05-24T10:44:16;99358.59;;;20.69;55.24
70488;BME280;57976;48.174;16.370;2023-05-24T10:46:22;99357.91;;;20.64;54.84
70488;BME280;57976;48.174;16.370;2023-05-24T10:48:40;99362.38;;;20.53;54.74
70488;BME280;57976;48.174;16.370;2023-05-24T10:50:45;99372.67;;;20.44;54.12
70488;BME280;57976;48.174;16.370;2023-05-24T10:52:50;99366.14;;;20.38;53.91
70488;BME280;57976;48.174;16.370;2023-05-24T10:55:06;99367.14;;;20.34;54.03
70488;BME280;57976;48.174;16.370;2023-05-24T10:57:11;99368.77;;;20.45;54.65
70488;BME280;57976;48.174;16.370;2023-05-24T10:59:32;99369.90;;;20.54;54.85